Ramsay, Michigan
Current Conditions -  °F | °C
As of 12:15 AM on Tuesday 21 Oct 2014 (Local Time) from KIWD Reporting Station
Overcast Overcast  
Wind Chill: 37°   Ceiling: 3400
Heat Index: 41°   Visibility: 10mi
Dew Point: 36°   Wind: 6mph
Humidity: 81%   Direction: 40°NE
Pressure: 30.1"   Gusts: NA
Location:  46.47°N, 90°W
Report Text: KIWD 210515Z AUTO 04005KT 10SM SCT024 OVC034 05/02 A3010 RMK AO1
Loading
Personal Weather Stations






























Interactive Weather Map
Tropical Storm Tracking
New forecast layout! Learn more

10-Day Weather Forecast

Advertisements
Track Severe Weather on mobile